createdAt,value
2019-01-21T00:01:42.175Z,95469.44
2019-01-21T00:04:13.607Z,95473.86
2019-01-21T00:06:45.042Z,95475.25
2019-01-21T00:09:16.469Z,95473.09
2019-01-21T00:11:47.961Z,95462.64
2019-01-21T00:14:19.456Z,95473.20
2019-01-21T00:16:50.910Z,95471.03
2019-01-21T00:19:22.544Z,95471.70
2019-01-21T00:21:53.999Z,95469.02
2019-01-21T00:24:25.434Z,95473.66
2019-01-21T00:26:56.886Z,95483.58
2019-01-21T00:29:28.306Z,95484.81
2019-01-21T00:31:59.762Z,95483.93
2019-01-21T00:34:31.452Z,95481.75
2019-01-21T00:37:03.689Z,95481.49
2019-01-21T00:39:35.239Z,95481.88
2019-01-21T00:42:06.917Z,95483.53
2019-01-21T00:44:38.336Z,95478.88
2019-01-21T00:47:09.768Z,95481.45
2019-01-21T00:49:41.110Z,95482.19
2019-01-21T00:52:12.556Z,95476.10
2019-01-21T00:54:43.979Z,95478.81
2019-01-21T00:57:15.438Z,95482.03
2019-01-21T00:59:46.861Z,95483.50
2019-01-21T01:02:18.328Z,95481.19
2019-01-21T01:04:49.777Z,95484.32
2019-01-21T01:07:21.230Z,95480.77
2019-01-21T01:09:52.660Z,95475.66
2019-01-21T01:12:24.157Z,95491.78
2019-01-21T01:14:55.597Z,95484.77
2019-01-21T01:17:27.043Z,95482.38
2019-01-21T01:19:58.458Z,95482.13
2019-01-21T01:22:29.913Z,95485.32
2019-01-21T01:25:01.342Z,95481.96
2019-01-21T01:27:32.804Z,95479.14
2019-01-21T01:30:04.357Z,95485.06
2019-01-21T01:32:35.892Z,95482.64
2019-01-21T01:35:08.095Z,95484.05
2019-01-21T01:37:39.699Z,95482.90
2019-01-21T01:40:15.524Z,95486.55
2019-01-21T01:42:47.137Z,95480.05
2019-01-21T01:45:27.045Z,95476.61
2019-01-21T01:48:07.501Z,95483.05
2019-01-21T01:50:38.937Z,95475.86
2019-01-21T01:53:10.370Z,95477.27
2019-01-21T01:55:41.793Z,95479.80
2019-01-21T01:58:13.230Z,95485.33
2019-01-21T02:00:44.648Z,95478.77
2019-01-21T02:03:16.114Z,95479.46
2019-01-21T02:05:47.532Z,95477.75
2019-01-21T02:08:19.353Z,95477.04
2019-01-21T02:10:50.795Z,95477.30
2019-01-21T02:13:22.327Z,95470.74
2019-01-21T02:15:53.930Z,95464.22
2019-01-21T02:18:25.368Z,95474.56
2019-01-21T02:20:59.810Z,95477.62
2019-01-21T02:23:40.040Z,95475.95
2019-01-21T02:26:21.255Z,95468.50
2019-01-21T02:29:29.384Z,95475.95
2019-01-21T02:33:09.140Z,95478.31
2019-01-21T02:36:45.490Z,95475.94
2019-01-21T02:40:07.856Z,95476.28
2019-01-21T02:43:12.519Z,95481.58
2019-01-21T02:46:47.661Z,95474.94
2019-01-21T02:50:04.104Z,95469.48
2019-01-21T02:53:19.129Z,95477.94
2019-01-21T02:56:59.865Z,95476.63
2019-01-21T03:00:21.814Z,95477.41
2019-01-21T03:03:33.681Z,95476.02
2019-01-21T03:06:27.065Z,95473.73
2019-01-21T03:09:48.810Z,95467.08
2019-01-21T03:13:00.134Z,95466.27
2019-01-21T03:16:15.300Z,95469.12
2019-01-21T03:19:34.743Z,95467.48
2019-01-21T03:22:47.309Z,95468.69
2019-01-21T03:26:02.939Z,95462.07
2019-01-21T03:29:28.923Z,95468.56
2019-01-21T03:33:08.549Z,95463.52
2019-01-21T03:36:23.244Z,95467.61
2019-01-21T03:40:00.374Z,95465.17
2019-01-21T03:43:07.457Z,95465.17
2019-01-21T03:46:27.622Z,95472.45
2019-01-21T03:49:20.086Z,95474.37
2019-01-21T03:52:56.546Z,95475.89
2019-01-21T03:55:28.060Z,95478.31
2019-01-21T03:58:57.089Z,95479.74
2019-01-21T04:02:25.481Z,95477.39
2019-01-21T04:05:32.860Z,95473.72
2019-01-21T04:08:37.155Z,95476.42
2019-01-21T04:11:41.002Z,95479.61
2019-01-21T04:15:16.482Z,95482.52
2019-01-21T04:18:35.904Z,95479.48
2019-01-21T04:22:07.019Z,95483.81
2019-01-21T04:25:26.414Z,95482.41
2019-01-21T04:28:38.266Z,95477.11
2019-01-21T04:32:03.306Z,95473.37
2019-01-21T04:35:27.308Z,95474.09
2019-01-21T04:39:19.669Z,95469.45
2019-01-21T04:42:45.482Z,95471.05
2019-01-21T04:46:02.380Z,95479.70
2019-01-21T04:49:20.114Z,95478.53
2019-01-21T04:52:33.674Z,95477.81
2019-01-21T04:55:56.187Z,95480.75
2019-01-21T04:59:16.693Z,95481.37
2019-01-21T05:02:22.848Z,95486.98
2019-01-21T05:06:00.924Z,95488.25
2019-01-21T05:09:12.176Z,95484.72
2019-01-21T05:12:23.394Z,95486.66
2019-01-21T05:15:28.040Z,95481.00
2019-01-21T05:18:43.779Z,95487.94
2019-01-21T05:22:18.163Z,95490.37
2019-01-21T05:26:01.657Z,95492.09
2019-01-21T05:29:45.694Z,95492.16
2019-01-21T05:33:09.822Z,95490.62
2019-01-21T05:36:19.390Z,95500.63
2019-01-21T05:39:46.808Z,95506.31
2019-01-21T05:43:32.291Z,95505.48
2019-01-21T05:47:09.568Z,95506.63
2019-01-21T05:50:35.300Z,95510.83
2019-01-21T05:54:10.518Z,95514.03
2019-01-21T05:57:34.256Z,95513.32
2019-01-21T06:01:28.930Z,95517.58
2019-01-21T06:04:53.356Z,95519.48
2019-01-21T06:08:43.160Z,95520.66
2019-01-21T06:12:01.055Z,95524.67
2019-01-21T06:15:13.029Z,95531.20
2019-01-21T06:18:07.480Z,95530.78
2019-01-21T06:21:55.838Z,95533.98
2019-01-21T06:25:43.650Z,95533.41
2019-01-21T06:29:03.763Z,95534.31
2019-01-21T06:32:25.320Z,95532.83
2019-01-21T06:35:32.979Z,95527.55
2019-01-21T06:39:11.562Z,95537.12
2019-01-21T06:42:41.025Z,95532.66
2019-01-21T06:45:42.371Z,95535.84
2019-01-21T06:49:09.592Z,95540.29
2019-01-21T06:52:19.506Z,95539.30
2019-01-21T06:55:33.505Z,95546.42
2019-01-21T06:58:52.170Z,95538.19
2019-01-21T07:01:54.635Z,95549.62
2019-01-21T07:05:19.446Z,95547.63
2019-01-21T07:08:52.875Z,95558.80
2019-01-21T07:12:20.076Z,95560.78
2019-01-21T07:15:54.416Z,95557.70
2019-01-21T07:19:10.968Z,95562.31
2019-01-21T07:22:06.291Z,95575.24
2019-01-21T07:25:19.572Z,95575.19
2019-01-21T07:28:55.889Z,95572.94
2019-01-21T07:32:23.555Z,95570.57
2019-01-21T07:35:41.127Z,95567.06
2019-01-21T07:38:34.599Z,95569.43
2019-01-21T07:42:15.191Z,95569.41
2019-01-21T07:45:41.556Z,95569.86
2019-01-21T07:49:22.128Z,95565.55
2019-01-21T07:53:23.931Z,95568.50
2019-01-21T07:57:02.998Z,95567.01
2019-01-21T08:00:08.914Z,95569.64
2019-01-21T08:03:26.639Z,95574.99
2019-01-21T08:06:45.751Z,95581.25
2019-01-21T08:10:37.039Z,95577.49
2019-01-21T08:13:43.032Z,95576.19
2019-01-21T08:16:56.735Z,95576.40
2019-01-21T08:20:33.147Z,95580.17
2019-01-21T08:23:43.493Z,95578.94
2019-01-21T08:26:51.684Z,95586.25
2019-01-21T08:29:44.079Z,95589.23
2019-01-21T08:33:30.723Z,95591.28
2019-01-21T08:36:53.566Z,95590.25
2019-01-21T08:40:17.270Z,95592.92
2019-01-21T08:43:33.014Z,95602.52
2019-01-21T08:46:51.828Z,95601.44
2019-01-21T08:50:32.841Z,95594.09
2019-01-21T08:53:52.749Z,95592.70
2019-01-21T08:57:24.548Z,95595.10
2019-01-21T09:00:20.939Z,95596.03
2019-01-21T09:03:40.747Z,95602.16
2019-01-21T09:06:39.848Z,95604.89
2019-01-21T09:09:48.646Z,95611.70
2019-01-21T09:13:02.392Z,95606.22
2019-01-21T09:16:44.458Z,95599.05
2019-01-21T09:19:49.023Z,95607.50
2019-01-21T09:23:28.770Z,95612.17
2019-01-21T09:26:37.668Z,95615.92
2019-01-21T09:29:42.997Z,95615.98
2019-01-21T09:32:37.337Z,95615.77
2019-01-21T09:36:07.445Z,95624.17
2019-01-21T09:39:59.881Z,95624.05
2019-01-21T09:43:32.723Z,95618.91
2019-01-21T09:46:46.832Z,95621.33
2019-01-21T09:49:15.967Z,95626.14
2019-01-21T09:52:09.224Z,95625.53
2019-01-21T09:54:41.836Z,95624.56
2019-01-21T09:57:24.235Z,95625.90
2019-01-21T10:00:00.197Z,95625.62
2019-01-21T10:02:40.601Z,95628.63
2019-01-21T10:05:14.976Z,95628.67
2019-01-21T10:08:18.076Z,95622.12
2019-01-21T10:12:00.559Z,95623.94
2019-01-21T10:15:43.345Z,95624.56
2019-01-21T10:19:23.423Z,95623.16
2019-01-21T10:22:45.535Z,95621.09
2019-01-21T10:25:53.093Z,95616.69
2019-01-21T10:29:13.898Z,95610.25
2019-01-21T10:32:38.953Z,95612.22
2019-01-21T10:35:59.677Z,95612.03
2019-01-21T10:39:40.614Z,95605.67
2019-01-21T10:42:58.543Z,95594.50
2019-01-21T10:45:53.493Z,95589.47
2019-01-21T10:49:01.220Z,95595.83
2019-01-21T10:52:30.384Z,95594.50
2019-01-21T10:55:45.990Z,95584.11
2019-01-21T10:59:18.534Z,95582.97
2019-01-21T11:02:40.650Z,95580.11
2019-01-21T11:05:50.235Z,95579.31
2019-01-21T11:09:13.802Z,95580.24
2019-01-21T11:12:53.870Z,95578.82
2019-01-21T11:15:45.132Z,95574.81
2019-01-21T11:18:56.131Z,95565.29
2019-01-21T11:22:20.156Z,95571.76
2019-01-21T11:25:34.142Z,95564.27
2019-01-21T11:28:57.388Z,95569.02
2019-01-21T11:32:25.568Z,95562.50
2019-01-21T11:35:46.296Z,95566.27
2019-01-21T11:39:33.572Z,95561.08
2019-01-21T11:42:53.866Z,95559.38
2019-01-21T11:46:13.376Z,95558.66
2019-01-21T11:49:43.890Z,95550.82
2019-01-21T11:53:05.726Z,95554.03
2019-01-21T11:56:21.668Z,95552.83
2019-01-21T11:59:52.761Z,95552.10
2019-01-21T12:03:16.018Z,95551.65
2019-01-21T12:06:13.830Z,95548.17
2019-01-21T12:09:58.044Z,95547.09
2019-01-21T12:13:16.711Z,95551.24
2019-01-21T12:16:46.018Z,95550.16
2019-01-21T12:19:56.358Z,95550.16
2019-01-21T12:23:31.574Z,95546.55
2019-01-21T12:26:37.399Z,95539.49
2019-01-21T12:29:55.155Z,95538.70
2019-01-21T12:33:38.062Z,95537.30
2019-01-21T12:36:58.047Z,95537.61
2019-01-21T12:40:33.784Z,95533.06
2019-01-21T12:43:55.053Z,95529.08
2019-01-21T12:47:24.700Z,95522.58
2019-01-21T12:50:54.503Z,95523.23
2019-01-21T12:54:11.624Z,95520.59
2019-01-21T12:57:15.567Z,95524.23
2019-01-21T13:00:36.260Z,95519.87
2019-01-21T13:04:10.386Z,95520.85
2019-01-21T13:07:33.535Z,95516.58
2019-01-21T13:11:07.412Z,95508.55
2019-01-21T13:14:25.057Z,95507.88
2019-01-21T13:17:37.043Z,95506.09
2019-01-21T13:20:49.215Z,95506.83
2019-01-21T13:24:06.094Z,95506.53
2019-01-21T13:28:07.280Z,95507.88
2019-01-21T13:31:25.799Z,95506.73
2019-01-21T13:35:04.842Z,95504.28
2019-01-21T13:38:45.814Z,95503.34
2019-01-21T13:41:43.862Z,95502.00
2019-01-21T13:45:27.843Z,95500.16
2019-01-21T13:49:03.508Z,95498.30
2019-01-21T13:52:51.450Z,95501.30
2019-01-21T13:56:37.007Z,95490.17
2019-01-21T13:59:59.016Z,95493.56
2019-01-21T14:03:27.868Z,95501.16
2019-01-21T14:06:49.617Z,95494.41
2019-01-21T14:09:56.988Z,95491.75
2019-01-21T14:12:47.451Z,95494.17
2019-01-21T14:15:51.930Z,95499.95
2019-01-21T14:19:12.076Z,95503.13
2019-01-21T14:22:42.406Z,95496.22
2019-01-21T14:26:07.131Z,95503.98
2019-01-21T14:29:25.188Z,95497.59
2019-01-21T14:32:23.364Z,95497.95
2019-01-21T14:35:44.138Z,95504.45
2019-01-21T14:39:19.459Z,95502.38
2019-01-21T14:42:19.964Z,95501.42
2019-01-21T14:45:48.853Z,95501.48
2019-01-21T14:48:54.321Z,95500.29
2019-01-21T14:52:34.504Z,95499.88
2019-01-21T14:55:42.858Z,95497.70
2019-01-21T14:59:04.015Z,95500.36
2019-01-21T15:02:14.042Z,95497.60
2019-01-21T15:05:32.308Z,95495.72
2019-01-21T15:08:52.659Z,95495.31
2019-01-21T15:12:11.932Z,95496.66
2019-01-21T15:15:56.836Z,95497.47
2019-01-21T15:18:59.177Z,95493.09
2019-01-21T15:22:15.982Z,95499.02
2019-01-21T15:25:52.204Z,95502.77
2019-01-21T15:29:14.554Z,95507.41
2019-01-21T15:32:33.037Z,95511.08
2019-01-21T15:35:52.496Z,95512.80
2019-01-21T15:39:22.368Z,95511.11
2019-01-21T15:42:50.373Z,95509.36
2019-01-21T15:46:09.975Z,95511.55
2019-01-21T15:49:02.007Z,95508.52
2019-01-21T15:52:24.607Z,95509.79
2019-01-21T15:55:55.363Z,95511.61
2019-01-21T15:58:58.331Z,95509.77
2019-01-21T16:02:07.259Z,95506.13
2019-01-21T16:05:21.717Z,95502.03
2019-01-21T16:08:25.509Z,95509.21
2019-01-21T16:11:34.352Z,95501.92
2019-01-21T16:14:15.269Z,95504.13
2019-01-21T16:17:57.472Z,95499.41
2019-01-21T16:21:39.031Z,95506.47
2019-01-21T16:24:55.190Z,95501.92
2019-01-21T16:28:11.286Z,95502.50
2019-01-21T16:30:55.685Z,95501.87
2019-01-21T16:34:20.452Z,95503.52
2019-01-21T16:37:44.583Z,95498.64
2019-01-21T16:41:41.857Z,95493.44
2019-01-21T16:44:13.491Z,95490.75
2019-01-21T16:46:44.965Z,95499.02
2019-01-21T16:49:16.439Z,95498.11
2019-01-21T16:51:49.318Z,95498.91
2019-01-21T16:54:20.734Z,95501.91
2019-01-21T16:56:52.287Z,95491.38
2019-01-21T16:59:24.035Z,95498.50
2019-01-21T17:01:56.188Z,95502.47
2019-01-21T17:04:27.681Z,95503.34
2019-01-21T17:06:59.138Z,95508.48
2019-01-21T17:09:30.998Z,95512.95
2019-01-21T17:12:02.462Z,95506.50
2019-01-21T17:14:34.405Z,95492.90
2019-01-21T17:17:05.900Z,95492.39
2019-01-21T17:19:39.655Z,95488.87
2019-01-21T17:22:11.173Z,95490.48
2019-01-21T17:24:42.805Z,95493.91
2019-01-21T17:27:14.323Z,95489.78
2019-01-21T17:29:45.903Z,95492.80
2019-01-21T17:32:17.458Z,95493.54
2019-01-21T17:34:49.072Z,95491.52
2019-01-21T17:37:20.644Z,95484.00
2019-01-21T17:39:52.249Z,95483.13
2019-01-21T17:42:23.760Z,95482.14
2019-01-21T17:44:55.291Z,95482.39
2019-01-21T17:47:26.779Z,95485.98
2019-01-21T17:49:58.281Z,95485.41
2019-01-21T17:52:29.859Z,95486.31
2019-01-21T17:55:02.804Z,95487.45
2019-01-21T17:57:34.377Z,95482.78
2019-01-21T18:00:08.925Z,95478.39
2019-01-21T18:02:42.071Z,95476.87
2019-01-21T18:05:16.515Z,95475.09
2019-01-21T18:07:48.184Z,95481.71
2019-01-21T18:10:21.367Z,95475.06
2019-01-21T18:12:52.891Z,95477.75
2019-01-21T18:15:24.373Z,95478.25
2019-01-21T18:17:56.010Z,95477.61
2019-01-21T18:20:27.583Z,95479.66
2019-01-21T18:22:59.123Z,95484.40
2019-01-21T18:25:30.665Z,95476.20
2019-01-21T18:28:02.107Z,95475.20
2019-01-21T18:30:33.645Z,95473.75
2019-01-21T18:33:05.193Z,95472.91
2019-01-21T18:35:36.655Z,95478.25
2019-01-21T18:38:08.103Z,95476.06
2019-01-21T18:40:39.595Z,95481.08
2019-01-21T18:43:11.098Z,95484.27
2019-01-21T18:45:43.107Z,95480.30
2019-01-21T18:48:14.634Z,95484.13
2019-01-21T18:50:46.181Z,95482.05
2019-01-21T18:53:17.612Z,95479.48
2019-01-21T18:55:49.125Z,95473.11
2019-01-21T18:58:20.579Z,95474.47
2019-01-21T19:00:52.054Z,95476.36
2019-01-21T19:03:23.532Z,95469.34
2019-01-21T19:05:55.067Z,95470.29
2019-01-21T19:08:26.518Z,95469.23
2019-01-21T19:10:59.956Z,95469.68
2019-01-21T19:13:31.411Z,95465.19
2019-01-21T19:16:05.692Z,95462.91
2019-01-21T19:18:37.129Z,95461.08
2019-01-21T19:21:10.056Z,95461.58
2019-01-21T19:23:44.826Z,95464.51
2019-01-21T19:26:16.283Z,95470.64
2019-01-21T19:28:47.710Z,95464.60
2019-01-21T19:31:19.235Z,95468.27
2019-01-21T19:33:50.758Z,95466.27
2019-01-21T19:36:23.427Z,95460.55
2019-01-21T19:38:54.870Z,95465.14
2019-01-21T19:41:27.411Z,95457.53
2019-01-21T19:43:59.027Z,95459.81
2019-01-21T19:46:30.573Z,95466.77
2019-01-21T19:49:02.033Z,95462.70
2019-01-21T19:51:34.836Z,95460.55
2019-01-21T19:54:06.401Z,95464.38
2019-01-21T19:56:38.031Z,95469.75
2019-01-21T19:59:09.478Z,95473.28
2019-01-21T20:01:41.043Z,95481.42
2019-01-21T20:04:12.575Z,95483.14
2019-01-21T20:06:44.047Z,95481.49
2019-01-21T20:09:17.241Z,95475.00
2019-01-21T20:11:48.708Z,95466.69
2019-01-21T20:14:20.064Z,95468.47
2019-01-21T20:16:51.540Z,95471.77
2019-01-21T20:19:22.996Z,95474.25
2019-01-21T20:21:54.481Z,95479.89
2019-01-21T20:24:25.946Z,95472.97
2019-01-21T20:26:57.443Z,95470.89
2019-01-21T20:29:28.925Z,95467.70
2019-01-21T20:32:00.380Z,95466.19
2019-01-21T20:34:31.903Z,95474.19
2019-01-21T20:37:03.421Z,95476.61
2019-01-21T20:39:34.975Z,95476.45
2019-01-21T20:42:06.447Z,95474.36
2019-01-21T20:44:37.878Z,95467.85
2019-01-21T20:47:09.357Z,95468.63
2019-01-21T20:49:40.805Z,95474.02
2019-01-21T20:52:14.245Z,95476.59
2019-01-21T20:54:45.490Z,95477.02
2019-01-21T20:57:16.960Z,95477.84
2019-01-21T20:59:48.454Z,95474.34
2019-01-21T21:02:19.920Z,95473.92
2019-01-21T21:04:51.482Z,95470.73
2019-01-21T21:07:23.004Z,95469.44
2019-01-21T21:09:54.521Z,95467.60
2019-01-21T21:12:26.114Z,95476.30
2019-01-21T21:14:57.625Z,95480.41
2019-01-21T21:17:29.223Z,95478.55
2019-01-21T21:20:00.756Z,95475.33
2019-01-21T21:22:32.265Z,95473.65
2019-01-21T21:25:03.879Z,95475.86
2019-01-21T21:27:35.503Z,95473.86
2019-01-21T21:30:12.083Z,95478.05
2019-01-21T21:32:43.595Z,95477.67
2019-01-21T21:35:15.258Z,95467.55
2019-01-21T21:37:46.789Z,95468.73
2019-01-21T21:40:19.570Z,95468.22
2019-01-21T21:42:51.182Z,95469.50
2019-01-21T21:45:22.790Z,95467.73
2019-01-21T21:47:54.715Z,95467.66
2019-01-21T21:50:31.994Z,95465.64
2019-01-21T21:53:03.705Z,95462.95
2019-01-21T21:55:35.319Z,95461.08
2019-01-21T21:58:10.200Z,95454.80
2019-01-21T22:00:41.788Z,95459.19
2019-01-21T22:03:13.364Z,95461.94
2019-01-21T22:05:44.859Z,95463.27
2019-01-21T22:08:16.447Z,95456.00
2019-01-21T22:10:48.030Z,95454.32
2019-01-21T22:13:19.586Z,95458.03
2019-01-21T22:15:51.080Z,95457.27
2019-01-21T22:18:22.614Z,95458.94
2019-01-21T22:20:54.133Z,95461.80
2019-01-21T22:23:25.678Z,95456.79
2019-01-21T22:25:57.168Z,95455.17
2019-01-21T22:28:28.634Z,95458.32
2019-01-21T22:31:00.359Z,95454.59
2019-01-21T22:33:32.800Z,95456.95
2019-01-21T22:36:04.298Z,95458.89
2019-01-21T22:38:35.796Z,95454.11
2019-01-21T22:41:07.264Z,95450.30
2019-01-21T22:43:38.715Z,95452.27
2019-01-21T22:46:10.163Z,95448.42
2019-01-21T22:48:41.684Z,95449.59
2019-01-21T22:51:13.126Z,95449.95
2019-01-21T22:53:44.578Z,95451.81
2019-01-21T22:56:16.009Z,95451.48
2019-01-21T22:58:47.640Z,95448.73
2019-01-21T23:01:33.655Z,95448.81
2019-01-21T23:04:05.390Z,95442.48
2019-01-21T23:06:36.817Z,95448.35
2019-01-21T23:09:10.246Z,95450.34
2019-01-21T23:11:41.732Z,95449.38
2019-01-21T23:14:13.203Z,95442.19
2019-01-21T23:16:44.649Z,95445.86
2019-01-21T23:19:16.138Z,95443.63
2019-01-21T23:21:47.577Z,95443.13
2019-01-21T23:24:19.363Z,95443.56
2019-01-21T23:26:50.904Z,95438.34
2019-01-21T23:29:22.441Z,95442.37
2019-01-21T23:31:53.881Z,95441.35
2019-01-21T23:34:25.355Z,95438.93
2019-01-21T23:36:56.783Z,95440.02
2019-01-21T23:39:28.226Z,95435.05
2019-01-21T23:41:59.679Z,95435.84
2019-01-21T23:44:31.141Z,95428.33
2019-01-21T23:47:02.873Z,95422.74
2019-01-21T23:49:34.392Z,95413.83
2019-01-21T23:52:05.825Z,95416.87
2019-01-21T23:54:37.304Z,95404.66
2019-01-21T23:57:08.713Z,95411.34
2019-01-21T23:59:40.215Z,95411.15
